TimeCDT,TemperatureF,Dew PointF,Humidity,Sea Level PressureIn,VisibilityMPH,Wind Direction,Wind SpeedMPH,Gust SpeedMPH,PrecipitationIn,Events,Conditions,WindDirDegrees,DateUTC
12:54 AM,66.9,63.0,87,30.11,10.0,NE,3.5,-,0.01,,Overcast,40,2013-07-30 05:54:00
1:13 AM,66.2,64.4,94,30.12,2.5,East,4.6,-,0.09,Rain,Heavy Rain,80,2013-07-30 06:13:00
1:20 AM,66.2,62.6,88,30.13,5.0,NE,5.8,-,0.10,Rain,Light Rain,50,2013-07-30 06:20:00
1:54 AM,66.9,63.0,87,30.09,10.0,East,8.1,-,0.14,Rain,Light Rain,90,2013-07-30 06:54:00
2:54 AM,66.0,63.0,90,30.09,5.0,North,3.5,-,0.04,Rain,Rain,360,2013-07-30 07:54:00
3:54 AM,66.9,63.0,87,30.07,10.0,ESE,12.7,-,0.14,Rain,Light Rain,110,2013-07-30 08:54:00
4:31 AM,66.2,62.6,88,30.09,10.0,SE,6.9,-,0.05,,Overcast,140,2013-07-30 09:31:00
4:54 AM,64.9,62.1,90,30.08,2.5,SE,8.1,-,0.11,Rain,Heavy Rain,130,2013-07-30 09:54:00
5:10 AM,64.4,62.6,94,30.09,3.0,SE,8.1,-,0.05,Rain,Rain,130,2013-07-30 10:10:00
5:54 AM,64.9,64.0,97,30.07,7.0,SE,8.1,-,0.06,,Overcast,130,2013-07-30 10:54:00
6:02 AM,64.4,64.4,100,30.09,6.0,SE,8.1,-,N/A,,Overcast,130,2013-07-30 11:02:00
6:29 AM,64.4,62.6,94,30.08,8.0,SE,10.4,-,N/A,,Overcast,130,2013-07-30 11:29:00
6:37 AM,64.4,62.6,94,30.09,10.0,SE,10.4,-,N/A,,Overcast,140,2013-07-30 11:37:00
6:54 AM,64.9,63.0,93,30.07,7.0,SSE,11.5,17.3,0.01,Rain,Light Rain,150,2013-07-30 11:54:00
7:54 AM,64.9,64.0,97,30.07,6.0,SE,5.8,-,0.01,Rain,Light Rain,130,2013-07-30 12:54:00
8:06 AM,66.2,64.4,94,30.08,4.0,SE,8.1,-,0.01,Rain,Light Rain,130,2013-07-30 13:06:00
8:54 AM,66.0,64.0,93,30.06,3.0,SE,8.1,-,0.05,Rain,Light Rain,140,2013-07-30 13:54:00
9:38 AM,66.2,64.4,94,30.07,10.0,SSE,10.4,-,0.00,,Overcast,150,2013-07-30 14:38:00
9:54 AM,68.0,64.9,90,30.05,10.0,SSE,9.2,-,0.00,,Overcast,150,2013-07-30 14:54:00
10:54 AM,70.0,64.9,84,30.04,10.0,SSE,10.4,-,N/A,,Overcast,160,2013-07-30 15:54:00
11:01 AM,71.6,66.2,83,30.06,10.0,SSE,10.4,-,N/A,,Overcast,150,2013-07-30 16:01:00
11:44 AM,73.4,66.2,78,30.06,10.0,SSE,10.4,-,N/A,,Mostly Cloudy,160,2013-07-30 16:44:00
11:54 AM,73.0,66.0,79,30.04,10.0,SSE,11.5,-,N/A,,Overcast,160,2013-07-30 16:54:00
12:10 PM,73.4,66.2,78,30.04,10.0,SSE,11.5,-,N/A,,Overcast,160,2013-07-30 17:10:00
12:54 PM,75.0,66.9,76,30.03,10.0,South,8.1,-,N/A,,Overcast,170,2013-07-30 17:54:00
1:54 PM,73.9,66.9,79,30.01,10.0,South,8.1,-,N/A,,Overcast,170,2013-07-30 18:54:00
2:11 PM,73.4,66.2,78,30.02,10.0,South,8.1,-,N/A,,Overcast,170,2013-07-30 19:11:00
2:54 PM,75.0,66.9,76,30.00,10.0,SSE,6.9,-,N/A,,Overcast,150,2013-07-30 19:54:00
3:01 PM,75.2,66.2,73,30.01,10.0,South,6.9,-,N/A,,Overcast,170,2013-07-30 20:01:00
3:54 PM,77.0,68.0,74,29.99,10.0,SSE,6.9,-,N/A,,Overcast,150,2013-07-30 20:54:00
4:54 PM,78.1,68.0,71,29.99,10.0,Variable,3.5,-,N/A,,Overcast,0,2013-07-30 21:54:00
5:54 PM,77.0,68.0,74,30.00,10.0,South,3.5,-,N/A,,Overcast,180,2013-07-30 22:54:00
6:51 PM,75.2,69.8,83,30.01,10.0,ESE,8.1,-,N/A,,Overcast,110,2013-07-30 23:51:00
6:54 PM,75.9,69.1,79,29.99,10.0,ESE,6.9,-,N/A,,Overcast,120,2013-07-30 23:54:00
7:54 PM,75.0,69.1,82,29.99,7.0,ESE,4.6,-,N/A,,Overcast,110,2013-07-31 00:54:00
8:42 PM,73.4,69.8,88,30.02,7.0,ESE,4.6,-,N/A,,Overcast,110,2013-07-31 01:42:00
8:54 PM,73.9,69.1,85,30.00,7.0,ESE,4.6,-,N/A,,Overcast,110,2013-07-31 01:54:00
9:54 PM,72.0,69.1,91,30.02,5.0,ESE,4.6,-,N/A,,Overcast,110,2013-07-31 02:54:00
10:54 PM,72.0,69.1,91,30.04,4.0,Calm,Calm,-,N/A,,Overcast,0,2013-07-31 03:54:00
11:01 PM,71.6,69.8,94,30.05,4.0,Calm,Calm,-,N/A,,Overcast,0,2013-07-31 04:01:00
11:09 PM,71.6,69.8,94,30.05,4.0,Calm,Calm,-,N/A,,Overcast,0,2013-07-31 04:09:00
11:36 PM,71.6,69.8,94,30.04,3.0,Calm,Calm,-,N/A,,Overcast,0,2013-07-31 04:36:00
11:54 PM,72.0,69.1,91,30.03,3.0,Calm,Calm,-,N/A,,Overcast,0,2013-07-31 04:54:00